Notice: Undefined index: language in D:\xampp\htdocs\vam\index.php on line 25
Open Air Virtual

 METAR AND TAF INFORMATION
METAR FOR EGGW
ADDS - METARS form results

(1155 UTC 20 August 2019)
Data provider http://aviationweather.gov/metar/data/
 
METAR text: EGGW 201150Z AUTO 29012KT 9999 FEW042 17/09 Q1023
Conditions at: EGGW (LUTON AIRPORT , GB) observed 1150 UTC 20 August 2019
Temperature: 17.0°C (63°F)
Dewpoint: 9.0°C (48°F) [RH = 59%]
Pressure (altimeter): 30.21 inches Hg (1023.0 mb)
Winds: from the WNW (290 degrees) at 14 MPH (12 knots; 6.2 m/s)
Visibility: 6 or more miles (10+ km)
Ceiling: at least 12,000 feet AGL
Clouds: few clouds at 4200 feet AGL
Weather: no significant weather observed at this time

METAR text: EGGW 201120Z AUTO 27010KT 240V300 9999 SCT033 17/10 Q1022
Conditions at: EGGW (LUTON AIRPORT , GB) observed 1120 UTC 20 August 2019
Temperature: 17.0°C (63°F)
Dewpoint: 10.0°C (50°F) [RH = 63%]
Pressure (altimeter): 30.18 inches Hg (1022.0 mb)
Winds: from the W (270 degrees) at 12 MPH (10 knots; 5.1 m/s)
Visibility: 6 or more miles (10+ km)
Ceiling: at least 12,000 feet AGL
Clouds: scattered clouds at 3300 feet AGL
Weather: no significant weather observed at this time

Forecast for: EGGW (LUTON AIRPORT , GB)
Text: TAF EGGW 201053Z 2012/2112 28010KT 9999 SCT030
Forecast period: 1200 UTC 20 August 2019 to 0000 UTC 21 August 2019
Forecast type: FROM: standard forecast or significant change
Winds: from the W (280 degrees) at 12 MPH (10 knots; 5.1 m/s)
Visibility: 6 or more miles 10+ km)
Ceiling: at least 12,000 feet AGL
Clouds: scattered clouds at 3000 feet AGL
Weather: no significant weather forecast for this period
Text: BECMG 2100/2103 21005KT
Forecast period: 0000 to 1200 UTC 21 August 2019
Forecast type: BECOMING: Conditions expected to become as follows by 0300 UTC 21 August 2019
Winds: from the SSW (210 degrees) at 6 MPH (5 knots; 2.6 m/s)
Visibility: 6 or more miles 10+ km)
Ceiling: at least 12,000 feet AGL
Clouds: scattered clouds at 3000 feet AGL
Weather: no significant weather forecast for this period
Text: PROB30 2103/2107 8000
Forecast period: 0300 to 0700 UTC 21 August 2019
Forecast type: PROBABLE: 30 percent likelihood of the following during this time
Visibility: 5 miles (8 km)
Ceiling: unknown
Clouds: missing
Weather: no significant weather forecast for this period

 AIRPORT MAP

 RUNWAY INFORMATION
Runway 08 Runway length 7086 ft Runway width 151 ft
Runway elevation 515 ft Runway displaced threshold 0 ft Runway heading 74
Runway 26 Runway length 7086 ft Runway width 151 ft
Runway elevation 508 ft Runway displaced threshold 279 ft Runway heading 254

 AIRPORT FREQUENCIES
Type APP Name APP Frequency 129.55 MHZ
Type ATIS Name ATIS Frequency 120.575 MHZ
Type GND Name GND Frequency 121.75 MHZ
Type TWR Name TWR Frequency 132.55 MHZ

 AIRPORT NEAR NAVIGATION AIDS



Powered by Virtual Airlines Manager [v2.6.2]